Latest Coastal Weather Observations for Horn Island

IDQ60701

Issued at 5:25 pm EST Wednesday 17 September 2014 (issued every 10 minutes, with the page automatically refreshed every 10 minutes)

About coastal observations | Map of coastal stations | Coastal observations for QLD | Marine services | Other Formats
Station Details ID: 027058 Name: HORN ISLAND Lat: -10.58 Lon: 142.29 Height: 4.0 m
Data from the previous 72 hours. | See also: Recent months at Horn Island
Date/Time
EST
Temp

°C
Wind Pressure Rain
since 9am
mm
Weather Cloud Vis
km
Sea
Height
m
Swell
Dir
 
Speed
knots
Gust
knots
hPa Trend Height
m
Period
s
Dir
17/05:00pm 27.3 ESE 15 21 1011.8 - 0.0 - - - - - - -
17/04:30pm 27.6 ESE 15 20 1011.8 - 0.0 - - - - - - -
17/04:00pm 28.6 E 14 19 1011.8 - 0.0 - - - - - - -
17/03:30pm 28.8 ESE 14 19 1012.0 - 0.0 - - - - - - -
17/03:00pm 29.3 ESE 14 20 1012.2 - 0.0 - - - - - - -
17/02:30pm 29.0 ESE 15 21 1012.6 - 0.0 - - - - - - -
17/02:00pm 29.2 ESE 15 20 1012.9 - 0.0 - - - - - - -
17/01:30pm 28.2 E 16 22 1013.1 - 0.0 - - - - - - -
17/01:00pm 28.2 ESE 17 22 1013.6 - 0.0 - - - - - - -
17/12:30pm 27.9 ESE 17 22 1013.9 - 0.0 - - - - - - -
17/12:00pm 28.5 ESE 16 23 1014.5 - 0.0 - Cloudy - - - - -
17/11:30am 28.7 E 17 22 1014.7 - 0.0 - Partly cloudy - - - - -
17/11:00am 27.6 E 18 22 1015.0 - 0.0 - Partly cloudy - - - - -
17/10:30am 27.7 ESE 14 19 1015.1 - 0.0 - Partly cloudy - - - - -
17/10:00am 27.9 ESE 15 19 1015.1 - 0.0 - - - - - - -
17/09:30am 26.5 ESE 17 23 1015.2 - 0.0 - Partly cloudy - - - - -
17/09:00am 26.5 ESE 14 20 1015.3 - 0.0 - Cloudy 10 - - - -
17/08:30am 25.8 ESE 13 17 1015.1 - 0.0 - Partly cloudy 10 - - - -
17/08:00am 25.6 ESE 11 16 1014.8 - 0.0 - Partly cloudy 10 - - - -
17/07:30am 24.7 ESE 13 18 1014.2 - 0.0 - Partly cloudy 10 - - - -
17/07:00am 24.1 ESE 12 16 1013.8 - 0.0 - Cloudy 10 - - - -
17/06:30am 23.7 ESE 10 13 1013.4 - 0.0 - Partly cloudy 10 - - - -
17/06:00am 23.7 ESE 11 16 1013.0 - 0.0 - Cloudy 7 - - - -
17/05:30am 23.7 ESE 12 16 1012.5 - 0.0 - Partly cloudy 10 - - - -
17/05:00am 23.5 ESE 9 13 1012.3 - 0.0 - Partly cloudy 10 - - - -
17/04:30am 23.5 ESE 9 12 1012.1 - 0.0 - Partly cloudy 10 - - - -
17/04:00am 23.5 ESE 9 11 1012.2 - 0.0 - Partly cloudy 10 - - - -
17/03:30am 23.6 SE 9 12 1012.2 - 0.0 - Partly cloudy 10 - - - -
17/03:00am 23.6 SE 10 14 1012.3 - 0.0 - Cloudy 10 - - - -
17/02:30am 23.9 SE 11 15 1012.4 - 0.0 - Partly cloudy 10 - - - -
17/02:00am 23.9 SE 11 14 1012.5 - 0.0 - Partly cloudy 10 - - - -
17/01:30am 24.0 ESE 12 15 1012.8 - 0.0 - Partly cloudy 10 - - - -
17/01:00am 24.2 ESE 12 17 1013.0 - 0.0 - Partly cloudy 10 - - - -
17/12:30am 24.5 ESE 13 18 1013.1 - 0.0 - Partly cloudy 10 - - - -
17/12:00am 24.5 ESE 14 21 1013.4 - 0.0 - Cloudy 10 - - - -
 
Date/Time
EST
Temp

°C
Wind Pressure Rain
since 9am
mm
Weather Cloud Vis
km
Sea
Height
m
Swell
Dir
 
Speed
knots
Gust
knots
hPa Trend Height
m
Period
s
Dir
16/11:30pm 24.4 ESE 15 20 1013.4 - 0.0 - Partly cloudy 10 - - - -
16/11:00pm 24.6 ESE 15 21 1013.4 - 0.0 - Partly cloudy 10 - - - -
16/10:30pm 24.4 ESE 14 20 1013.4 - 0.0 - Partly cloudy 10 - - - -
16/10:00pm 24.5 ESE 13 21 1013.4 - 0.0 - Partly cloudy 10 - - - -
16/09:30pm 24.5 ESE 15 21 1013.2 - 0.0 - - 10 - - - -
16/09:00pm 24.4 ESE 15 21 1012.9 - 0.0 - - 10 - - - -
16/08:30pm 24.5 ESE 14 23 1012.6 - 0.0 - - 10 - - - -
16/08:00pm 24.5 ESE 14 20 1012.2 - 0.0 - - 10 - - - -
16/07:30pm 24.6 ESE 13 21 1011.9 - 0.0 - - 10 - - - -
16/07:00pm 24.8 ESE 15 20 1011.7 - 0.0 - - 10 - - - -
16/06:30pm 24.9 ESE 15 20 1011.4 - 0.0 - - 10 - - - -
16/06:00pm 25.4 ESE 15 23 1011.1 - 0.0 - Cloudy 10 - - - -
16/05:30pm 26.0 ESE 16 22 1011.0 - 0.0 - - 10 - - - -
16/05:00pm 26.7 E 17 23 1010.9 - 0.0 - - 10 - - - -
16/04:30pm 27.2 ESE 18 23 1010.8 - 0.0 - - - - - - -
16/04:00pm 27.2 ESE 17 24 1010.7 - 0.0 - - - - - - -
16/03:30pm 27.4 E 18 26 1010.8 - 0.0 - - - - - - -
16/03:00pm 28.3 E 17 24 1011.0 - 0.0 - - - - - - -
16/02:30pm 28.4 ESE 18 24 1011.3 - 0.0 - - - - - - -
16/02:00pm 28.9 E 19 24 1011.6 - 0.0 - - - - - - -
16/01:30pm 28.1 E 17 23 1012.0 - 0.0 - - - - - - -
16/01:00pm 28.8 E 16 22 1012.3 - 0.0 - - - - - - -
16/12:30pm 27.9 E 16 24 1012.6 - 0.0 - - - - - - -
16/12:00pm 28.3 ESE 16 21 1013.0 - 0.0 - - - - - - -
16/11:30am 28.3 ESE 16 23 1013.4 - 0.0 - - - - - - -
16/11:00am 28.7 ESE 16 23 1013.8 - 0.0 - - - - - - -
16/10:30am 28.0 E 15 23 1014.1 - 0.0 - - - - - - -
16/10:00am 26.8 E 17 23 1014.2 - 0.0 - - - - - - -
16/09:30am 27.2 E 17 22 1014.4 - 0.0 - - - - - - -
16/09:00am 26.4 ESE 14 18 1014.3 - 0.0 - - 10 - - - -
16/08:30am 25.6 ESE 14 19 1014.1 - 0.0 - Partly cloudy 10 - - - -
16/08:00am 25.1 ESE 12 16 1013.9 - 0.0 - Partly cloudy 10 - - - -
16/07:30am 24.5 ESE 11 16 1013.5 - 0.0 - Partly cloudy 10 - - - -
16/07:00am 24.2 ESE 10 13 1013.2 - 0.0 - Partly cloudy 10 - - - -
16/06:30am 23.8 ESE 11 14 1013.0 - 0.0 - - 10 - - - -
16/06:00am 23.8 ESE 11 15 1012.7 - 0.0 - - 10 - - - -
16/05:30am 23.9 ESE 11 16 1012.4 - 0.0 - Partly cloudy 10 - - - -
16/05:00am 23.8 ESE 11 16 1012.2 - 0.0 - Partly cloudy 10 - - - -
16/04:30am 23.8 ESE 11 14 1012.2 - 0.0 - Partly cloudy 10 - - - -
16/04:00am 23.8 ESE 10 15 1012.1 - 0.0 - Partly cloudy 10 - - - -
16/03:30am 23.7 ESE 11 15 1012.1 - 0.0 - Partly cloudy 10 - - - -
16/03:00am 23.6 ESE 9 13 1012.1 - 0.0 - Cloudy 10 - - - -
16/02:30am 23.7 ESE 10 14 1012.1 - 0.0 - Partly cloudy 10 - - - -
16/02:00am 23.9 ESE 10 16 1012.3 - 0.0 - - 10 - - - -
16/01:30am 23.9 ESE 11 15 1012.6 - 0.0 - - 10 - - - -
16/01:00am 23.9 ESE 10 14 1012.9 - 0.0 - - 10 - - - -
16/12:30am 24.0 ESE 11 15 1013.0 - 0.0 - - 10 - - - -
16/12:00am 24.0 ESE 11 17 1013.1 - 0.0 - - 10 - - - -
 
Date/Time
EST
Temp

°C
Wind Pressure Rain
since 9am
mm
Weather Cloud Vis
km
Sea
Height
m
Swell
Dir
 
Speed
knots
Gust
knots
hPa Trend Height
m
Period
s
Dir
15/11:30pm 24.1 ESE 11 16 1013.3 - 0.0 - - 10 - - - -
15/11:00pm 24.2 ESE 10 13 1013.4 - 0.0 - - 10 - - - -
15/10:30pm 24.3 ESE 13 18 1013.3 - 0.0 - - 10 - - - -
15/10:00pm 24.4 ESE 14 19 1013.1 - 0.0 - - 10 - - - -
15/09:30pm 24.3 ESE 12 16 1013.0 - 0.0 - - 10 - - - -
15/09:00pm 24.3 ESE 12 18 1012.8 - 0.0 - - 10 - - - -
15/08:30pm 24.4 ESE 12 16 1012.6 - 0.0 - - 10 - - - -
15/08:00pm 24.5 ESE 14 21 1012.2 - 0.0 - - 10 - - - -
15/07:30pm 24.6 ESE 16 20 1011.7 - 0.0 - - 10 - - - -
15/07:00pm 24.8 SE 16 22 1011.6 - 0.0 - - 10 - - - -
15/06:30pm 25.0 ESE 15 21 1011.3 - 0.0 - - 10 - - - -
15/06:00pm 25.5 ESE 16 22 1011.1 - 0.0 - - 10 - - - -
15/05:30pm 26.1 ESE 16 25 1010.8 - 0.0 - - 10 - - - -
15/05:00pm 27.0 ESE 16 21 1010.6 - 0.0 - - 10 - - - -
15/04:30pm 27.6 ESE 16 22 1010.6 - 0.0 - - - - - - -
15/04:00pm 27.3 ESE 17 23 1010.5 - 0.0 - - - - - - -
15/03:30pm 27.9 ESE 17 23 1010.7 - 0.0 - - - - - - -
15/03:00pm 27.4 ESE 18 24 1010.8 - 0.0 - - - - - - -
15/02:30pm 28.4 ESE 17 24 1011.0 - 0.0 - - - - - - -
15/02:00pm 27.9 ESE 18 23 1011.2 - 0.0 - - - - - - -
15/01:30pm 28.0 ESE 17 24 1011.7 - 0.0 - - - - - - -
15/01:00pm 28.3 ESE 17 24 1012.0 - 0.0 - - - - - - -
15/12:30pm 28.0 ESE 19 23 1012.5 - 0.0 - Partly cloudy - - - - -
15/12:00pm 28.8 ESE 17 24 1013.1 - 0.0 - Cloudy - - - - -
15/11:30am 28.0 ESE 17 23 1013.4 - 0.0 - Partly cloudy - - - - -
15/11:00am 27.6 ESE 17 22 1013.7 - 0.0 - - - - - - -
15/10:30am 28.0 ESE 16 24 1013.8 - 0.0 - Partly cloudy - - - - -
15/10:00am 27.7 ESE 17 21 1014.0 - 0.0 - Partly cloudy - - - - -
15/09:30am 27.2 ESE 17 23 1014.0 - 0.0 - Partly cloudy - - - - -
15/09:00am 27.0 ESE 17 24 1013.8 - 0.0 - Cloudy - - - - -
15/08:30am 26.4 ESE 16 23 1013.5 - 0.0 - - 10 - - - -
15/08:00am 25.8 ESE 15 19 1013.2 - 0.0 - - 10 - - - -
15/07:30am 25.3 ESE 15 19 1013.0 - 0.0 - - 10 - - - -
15/07:00am 24.5 ESE 15 21 1012.5 - 0.0 - - 10 - - - -
15/06:30am 24.3 ESE 15 21 1012.2 - 0.0 - Partly cloudy 10 - - - -
15/06:00am 24.1 SE 13 20 1011.8 - 0.0 - Cloudy 10 - - - -
15/05:30am 24.2 ESE 13 17 1011.5 - 0.0 - Partly cloudy 10 - - - -
15/05:00am 24.2 ESE 12 19 1011.2 - 0.0 - Partly cloudy 9 - - - -
15/04:30am 24.2 ESE 12 18 1011.2 - 0.0 - - 10 - - - -
15/04:00am 24.2 SE 15 22 1011.2 - 0.0 - - 10 - - - -
15/03:30am 24.3 ESE 15 20 1011.3 - 0.0 - Partly cloudy 10 - - - -
15/03:00am 24.2 ESE 12 18 1011.4 - 0.0 - Cloudy 10 - - - -
15/02:30am 24.3 ESE 16 23 1011.5 - 0.0 - Partly cloudy 10 - - - -
15/02:00am 24.3 ESE 14 21 1011.7 - 0.0 - Partly cloudy 10 - - - -
15/01:30am 24.4 ESE 14 20 1012.0 - 0.0 - - 10 - - - -
15/01:00am 24.4 ESE 14 19 1012.3 - 0.0 - - 10 - - - -
15/12:30am 24.4 SE 14 20 1012.8 - 0.0 - - 10 - - - -
15/12:00am 24.4 SE 14 19 1013.0 - 0.0 - Cloudy 10 - - - -
 
Date/Time
EST
Temp

°C
Wind Pressure Rain
since 9am
mm
Weather Cloud Vis
km
Sea
Height
m
Swell
Dir
 
Speed
knots
Gust
knots
hPa Trend Height
m
Period
s
Dir
14/11:30pm 24.7 ESE 13 18 1013.1 - 0.0 - Partly cloudy 10 - - - -
14/11:00pm 24.7 SE 15 22 1013.4 - 0.0 - Partly cloudy 10 - - - -
14/10:30pm 24.7 SE 12 17 1013.2 - 0.0 - Partly cloudy 10 - - - -
14/10:00pm 24.9 SE 14 19 1013.2 - 0.0 - Partly cloudy 10 - - - -
14/09:30pm 24.9 SE 16 23 1013.2 - 0.0 - Partly cloudy 10 - - - -
14/09:00pm 24.9 SE 15 21 1013.0 - 0.0 - Cloudy 10 - - - -
14/08:30pm 25.0 SE 13 18 1012.9 - 0.0 - Partly cloudy 10 - - - -
14/08:00pm 24.7 SE 13 18 1012.6 - 0.0 - Partly cloudy 10 - - - -
14/07:30pm 24.8 SE 14 21 1012.5 - 0.0 - Partly cloudy 10 - - - -
14/07:00pm 24.9 SE 17 26 1012.1 - 0.0 - Partly cloudy 10 - - - -
14/06:30pm 25.1 ESE 16 25 1011.7 - 0.0 - - 10 - - - -
14/06:00pm 25.7 ESE 17 22 1011.5 - 0.0 - - 10 - - - -
14/05:30pm 26.1 ESE 17 24 1011.1 - 0.0 - - 10 - - - -

Other Formats:

Comma delimited format used in spreadsheet applications
http://www.bom.gov.au/fwo/IDQ60701/IDQ60701.94174.axf

JavaScript Object Notation format (JSON) in row-major order
http://www.bom.gov.au/fwo/IDQ60701/IDQ60701.94174.json